Jarcevo, Russia
Current Conditions -  °F | °C
As of 7:00 PM on Thursday 23 Oct 2014 (Local Time) from UNKL Reporting Station
Snow Showers Snow Showers  
Wind Chill: 24°   Ceiling: 200
Heat Index: 30°   Visibility: 0.25mi
Dew Point: 30°   Wind: 7mph
Humidity: 100%   Direction: 300°WNW
Pressure: 29.77"   Gusts: 13mph
Location:  60.25°N, 90.23°E
Report Text: UNKL 231200Z 30003G06MPS 0400 R29/0650V1400U +SHSN VV002M01/M01 Q1008 TEMPO 0500 +SHSN RMK QFE730 29////50
Loading
Personal Weather Stations






























Interactive Weather Map
Tropical Storm Tracking
New forecast layout! Learn more

10-Day Weather Forecast

Advertisements
Track Severe Weather on mobile